Main page
METAR-TAF:

METAR-TAF

Airports :

Benbecula Airport

Benbecula, Scotland

latitude: 57-28N, longitude: 007-22W, elevation: 6 m

Current weather observation

The report was made 29 minutes ago, at 20:20 UTC
Wind 3 kt from the Northeast
Temperature 1°C
Humidity 80%
Pressure 1024 hPa
Visibility 10 km or more

METAR: EGPL 112020Z AUTO 04003KT 9999 NCD 01/M02 Q1024

Time: 21:49 (20:49 UTC)

Forecast

The report was made 6 hours and 49 minutes ago, at 14:00 UTC
Forecast valid from 11 at 15 UTC to 11 at 18 UTC
Wind 5 kt from the Northeast
Visibility 10 km or more
Few clouds at a height of 4000 ft
Temporary
from 11 at 15 UTC to 11 at 18 UTC
Visibility: 3000 m
Broken clouds at a height of 1000 ft
Broken clouds at a height of 2000 ft, Cumulonimbus.
light snow showers

TAF: EGPL 111400Z 1115/1118 04005KT 9999 FEW040 TEMPO 1115/1118 3000 -SHSN BKN010 BKN020CB

Weather observations and forecasts of more than 4000 airports (METAR and TAF reports).

The available stations are represented by yellow and red dots on the map.

Hover mouse over dot to see the name of the station.

Then click to see weather observations and forecasts.

To change the map : click on the green buttons with a black cross to zoom in, on the green button with a dash to zoom out, or on the green arrows for adjacent maps.


METAR-TAF: